Monatstabelle

Bitte in den Auwahlmenüs den gewünschte Zeiraum wählen und die Schaltfläche "Anfrage absenden" betätigen. Beginn der Aufzeichnung ist 2007 - Dezember. Vor diesem Zeitraum sind keine Daten verfügbar.

2020 - Juli

 

Datum Temperatur (°C) Luftdruck (hPa) Luftfeuchte (%) Regen
(l/m²)
Wind (km/h)
avg: min: max: avg: min: max: avg: min: max: avg: max:
01.07.2020 21,7 15,3 29,4 1011,0 1008,7 1011,9 72 51 87 7,4 0,0 0,0
02.07.2020 20,8 17,7 27,7 1010,3 1008,1 1011,8 79 59 90 22,7 0,0 0,0
03.07.2020 20,0 0,0 24,3 1014,6 1010,6 1016,8 71 0 90 1,5 0,0 0,0
04.07.2020 20,6 16,0 26,6 1016,3 1014,9 1017,7 61 47 81 0,0 0,0 0,0
05.07.2020 22,5 12,9 30,5 1014,5 1009,9 1016,3 65 42 85 0,0 0,0 0,0
06.07.2020 19,8 15,2 30,6 1011,9 1007,6 1015,2 70 46 83 8,6 0,0 0,0
07.07.2020 14,7 12,3 18,5 1016,7 1013,9 1017,8 68 56 79 0,0 0,0 0,0
08.07.2020 17,7 11,1 27,4 1014,8 1013,2 1016,9 69 44 81 0,0 0,0 0,0
09.07.2020 21,3 14,9 29,4 1015,0 1013,5 1017,7 66 48 80 0,0 0,0 0,0
10.07.2020 26,3 16,6 32,5 1011,6 1010,1 1014,1 55 34 83 0,0 0,0 0,0
11.07.2020 18,3 14,9 27,4 1018,5 1013,7 1021,3 73 47 82 20,7 0,0 0,0
12.07.2020 17,0 11,6 21,4 1022,3 1020,9 1022,9 67 51 90 0,0 0,0 0,0
13.07.2020 12,9 8,7 24,1 1019,3 1017,6 1022,7 71 43 85 0,0 0,0 0,0
14.07.2020 16,9 15,7 24,2 1013,6 1012,2 1018,2 59 43 63 0,0 0,0 0,0
15.07.2020 18,5 12,3 27,1 1010,9 1009,8 1012,2 68 45 78 0,1 0,0 0,0
16.07.2020 17,4 13,1 24,7 1013,4 1011,7 1014,2 72 49 85 3,0 0,0 0,0
17.07.2020 14,6 11,6 20,7 1014,7 1013,4 1016,2 71 59 86 0,7 0,0 0,0
18.07.2020 15,3 10,7 19,5 1014,0 1013,1 1015,7 80 74 83 2,7 0,0 0,0
19.07.2020 17,9 12,1 23,7 1013,3 1012,3 1015,1 78 64 89 0,7 0,0 0,0
20.07.2020 21,1 13,5 28,9 1014,7 1012,8 1015,8 75 52 90 0,5 0,0 0,0
21.07.2020 21,1 13,8 29,5 1017,2 1015,9 1018,1 75 52 89 0,0 0,0 0,0
22.07.2020 18,9 14,7 24,8 1016,8 1014,9 1019,3 85 69 87 21,6 0,0 0,0
23.07.2020 20,2 15,0 28,1 1013,1 1012,1 1015,2 72 48 91 0,0 0,0 0,0
24.07.2020 20,4 14,7 27,7 1010,2 1009,2 1012,4 72 50 86 0,0 0,0 0,0
25.07.2020 19,0 15,2 26,1 1012,0 1009,9 1013,5 76 47 88 1,5 0,5 12,6
26.07.2020 19,2 12,6 27,6 1013,1 1011,7 1015,4 78 46 92 2,3 1,5 10,0
27.07.2020 21,8 13,0 28,1 1015,5 1013,6 1017,9 68 48 95 0,0 4,7 10,1
28.07.2020 26,3 16,9 34,3 1012,5 1010,6 1017,1 65 40 90 5,9 3,6 23,0
29.07.2020 21,1 17,7 27,7 1017,3 1013,6 1018,6 80 53 91 2,6 5,3 12,7
30.07.2020 23,3 16,7 29,8 1017,9 1017,0 1019,9 63 36 94 0,0 2,5 9,2
31.07.2020 23,6 16,7 31,9 1015,9 1014,4 1017,4 62 32 92 0,0 2,5 14,6
avg. 19,7 1014,6 70   ---
  Summe Regen: 102,7  
 
Min-Datum 03.07.2020 06.07.2020 03.07.2020 --- ---
Min-Zeit 07:42 10:18 07:42 --- ---
Minimum 0,0 1007,6 0 --- ---
 

Max-Datum

28.07.2020 12.07.2020 27.07.2020 02.07.2020 28.07.2020
Max-Zeit 15:50 13:38 07:28 17:18 21:52
Maximum 34,3 1022,9 95 22,7 23,0
 

 

  Letztes Jahr
gleiches Monat
Eistage max < 0°C 0 0
Frosttage min < 0°C 0 0
Sommertage max >=25°C 21 24
Heiße Tage max >=30°C 5 9

 

<<< nach oben >>>